This is the latest recevied weather packets stored in our database for station/object CE4RG-12. If no packets are shown the sender has not sent any weather packets the latest 10 day(s).
| Time | Temp. | Humidity | Pressure | Rain* | Wind** | Luminosity | Snow |
|---|---|---|---|---|---|---|---|
| 1777518842 | 23.33° C | 46% | 954.9 hPa | - | - | - | - |
| 1777518242 | 23.33° C | 46% | 955 hPa | - | - | - | - |
| 1777517642 | 23.33° C | 45% | 954.9 hPa | - | - | - | - |
| 1777517042 | 22.78° C | 45% | 953.8 hPa | - | - | - | - |
| 1777516442 | 23.33° C | 45% | 955 hPa | - | - | - | - |
| 1777515842 | 23.89° C | 45% | 955.1 hPa | - | - | - | - |
| 1777515242 | 23.89° C | 45% | 955.2 hPa | - | - | - | - |
| 1777514642 | 23.89° C | 45% | 955.1 hPa | - | - | - | - |
| 1777514042 | 23.89° C | 45% | 955 hPa | - | - | - | - |
| 1777513441 | 23.89° C | 45% | 955.2 hPa | - | - | - | - |
| 1777512841 | 23.89° C | 44% | 955.3 hPa | - | - | - | - |
| 1777512241 | 23.89° C | 44% | 955.2 hPa | - | - | - | - |
| 1777511641 | 24.44° C | 44% | 955.4 hPa | - | - | - | - |
| 1777511041 | 24.44° C | 44% | 955.3 hPa | - | - | - | - |
| 1777510441 | 24.44° C | 44% | 955.2 hPa | - | - | - | - |
| 1777509841 | 24.44° C | 44% | 955.2 hPa | - | - | - | - |
| 1777509241 | 24.44° C | 43% | 955.4 hPa | - | - | - | - |
| 1777508641 | 24.44° C | 43% | 955.3 hPa | - | - | - | - |
| 1777508040 | 25° C | 43% | 955.3 hPa | - | - | - | - |
| 1777507440 | 25° C | 43% | 955.2 hPa | - | - | - | - |
| 1777506840 | 25° C | 42% | 955.2 hPa | - | - | - | - |
| 1777506240 | 25° C | 42% | 955.2 hPa | - | - | - | - |
| 1777505640 | 25° C | 42% | 955.3 hPa | - | - | - | - |
| 1777505040 | 25° C | 42% | 955.3 hPa | - | - | - | - |
| 1777504440 | 25.56° C | 42% | 955.3 hPa | - | - | - | - |
* Rain since midnight (hover to see other rain measurements)
** Current wind speed in m/s (hover to see current wind gust speed)